sensor_id;sensor_type;location;lat;lon;timestamp;P1;durP1;ratioP1;P2;durP2;ratioP2
71150;SDS011;59071;42.138;24.768;2024-01-15T00:00:18;84.53;;;33.55;;
71150;SDS011;59071;42.138;24.768;2024-01-15T00:02:43;92.15;;;34.05;;
71150;SDS011;59071;42.138;24.768;2024-01-15T00:05:09;80.38;;;31.88;;
71150;SDS011;59071;42.138;24.768;2024-01-15T00:07:35;89.38;;;33.22;;
71150;SDS011;59071;42.138;24.768;2024-01-15T00:10:00;93.28;;;33.25;;
71150;SDS011;59071;42.138;24.768;2024-01-15T00:12:26;99.63;;;35.58;;
71150;SDS011;59071;42.138;24.768;2024-01-15T00:14:52;96.00;;;34.10;;
71150;SDS011;59071;42.138;24.768;2024-01-15T00:17:17;92.38;;;34.50;;
71150;SDS011;59071;42.138;24.768;2024-01-15T00:19:42;106.07;;;37.47;;
71150;SDS011;59071;42.138;24.768;2024-01-15T00:22:08;102.97;;;38.38;;
71150;SDS011;59071;42.138;24.768;2024-01-15T00:24:33;111.70;;;39.28;;
71150;SDS011;59071;42.138;24.768;2024-01-15T00:26:59;99.90;;;38.17;;
71150;SDS011;59071;42.138;24.768;2024-01-15T00:29:24;110.72;;;37.20;;
71150;SDS011;59071;42.138;24.768;2024-01-15T00:31:50;96.88;;;34.58;;
71150;SDS011;59071;42.138;24.768;2024-01-15T00:34:15;102.80;;;33.92;;
71150;SDS011;59071;42.138;24.768;2024-01-15T00:36:40;106.03;;;34.83;;
71150;SDS011;59071;42.138;24.768;2024-01-15T00:39:06;99.22;;;35.58;;
71150;SDS011;59071;42.138;24.768;2024-01-15T00:41:31;106.88;;;38.28;;
71150;SDS011;59071;42.138;24.768;2024-01-15T00:43:57;112.35;;;38.20;;
71150;SDS011;59071;42.138;24.768;2024-01-15T00:46:22;99.30;;;36.40;;
71150;SDS011;59071;42.138;24.768;2024-01-15T00:48:48;108.93;;;35.70;;
71150;SDS011;59071;42.138;24.768;2024-01-15T00:51:13;127.55;;;39.63;;
71150;SDS011;59071;42.138;24.768;2024-01-15T00:53:38;112.78;;;37.13;;
71150;SDS011;59071;42.138;24.768;2024-01-15T00:56:05;112.05;;;38.53;;
71150;SDS011;59071;42.138;24.768;2024-01-15T00:58:30;104.57;;;36.38;;
71150;SDS011;59071;42.138;24.768;2024-01-15T01:00:56;97.32;;;37.97;;
71150;SDS011;59071;42.138;24.768;2024-01-15T01:03:21;106.32;;;39.22;;
71150;SDS011;59071;42.138;24.768;2024-01-15T01:05:49;107.55;;;36.90;;
71150;SDS011;59071;42.138;24.768;2024-01-15T01:08:15;97.40;;;35.53;;
71150;SDS011;59071;42.138;24.768;2024-01-15T01:10:41;112.93;;;37.55;;
71150;SDS011;59071;42.138;24.768;2024-01-15T01:13:07;103.72;;;36.25;;
71150;SDS011;59071;42.138;24.768;2024-01-15T01:15:33;87.43;;;34.33;;
71150;SDS011;59071;42.138;24.768;2024-01-15T01:17:59;99.63;;;34.45;;
71150;SDS011;59071;42.138;24.768;2024-01-15T01:20:24;105.35;;;35.63;;
71150;SDS011;59071;42.138;24.768;2024-01-15T01:22:49;94.95;;;34.42;;
71150;SDS011;59071;42.138;24.768;2024-01-15T01:25:15;92.93;;;34.13;;
71150;SDS011;59071;42.138;24.768;2024-01-15T01:27:40;100.10;;;34.30;;
71150;SDS011;59071;42.138;24.768;2024-01-15T01:30:06;91.07;;;34.17;;
71150;SDS011;59071;42.138;24.768;2024-01-15T01:32:31;92.72;;;34.15;;
71150;SDS011;59071;42.138;24.768;2024-01-15T01:34:57;96.65;;;33.25;;
71150;SDS011;59071;42.138;24.768;2024-01-15T01:37:22;85.88;;;32.60;;
71150;SDS011;59071;42.138;24.768;2024-01-15T01:39:48;84.00;;;32.60;;
71150;SDS011;59071;42.138;24.768;2024-01-15T01:42:13;78.18;;;29.23;;
71150;SDS011;59071;42.138;24.768;2024-01-15T01:44:38;72.53;;;29.52;;
71150;SDS011;59071;42.138;24.768;2024-01-15T01:47:04;73.28;;;27.77;;
71150;SDS011;59071;42.138;24.768;2024-01-15T01:49:30;69.55;;;26.90;;
71150;SDS011;59071;42.138;24.768;2024-01-15T01:51:57;69.50;;;25.05;;
71150;SDS011;59071;42.138;24.768;2024-01-15T01:54:25;67.93;;;27.13;;
71150;SDS011;59071;42.138;24.768;2024-01-15T01:56:54;53.10;;;22.20;;
71150;SDS011;59071;42.138;24.768;2024-01-15T01:59:20;49.75;;;20.05;;
71150;SDS011;59071;42.138;24.768;2024-01-15T02:01:48;52.55;;;20.83;;
71150;SDS011;59071;42.138;24.768;2024-01-15T02:04:14;44.50;;;19.27;;
71150;SDS011;59071;42.138;24.768;2024-01-15T02:06:40;40.50;;;18.33;;
71150;SDS011;59071;42.138;24.768;2024-01-15T02:09:06;43.00;;;18.00;;
71150;SDS011;59071;42.138;24.768;2024-01-15T02:11:33;46.50;;;18.67;;
71150;SDS011;59071;42.138;24.768;2024-01-15T02:13:58;40.22;;;16.70;;
71150;SDS011;59071;42.138;24.768;2024-01-15T02:16:23;42.78;;;17.60;;
71150;SDS011;59071;42.138;24.768;2024-01-15T02:18:49;40.67;;;17.00;;
71150;SDS011;59071;42.138;24.768;2024-01-15T02:21:15;39.78;;;16.83;;
71150;SDS011;59071;42.138;24.768;2024-01-15T02:23:40;42.45;;;18.15;;
71150;SDS011;59071;42.138;24.768;2024-01-15T02:26:06;45.05;;;17.88;;
71150;SDS011;59071;42.138;24.768;2024-01-15T02:28:33;42.92;;;18.98;;
71150;SDS011;59071;42.138;24.768;2024-01-15T02:30:59;44.47;;;18.63;;
71150;SDS011;59071;42.138;24.768;2024-01-15T02:33:24;49.25;;;18.40;;
71150;SDS011;59071;42.138;24.768;2024-01-15T02:35:50;43.88;;;18.85;;
71150;SDS011;59071;42.138;24.768;2024-01-15T02:38:15;43.17;;;17.17;;
71150;SDS011;59071;42.138;24.768;2024-01-15T02:40:42;39.25;;;17.38;;
71150;SDS011;59071;42.138;24.768;2024-01-15T02:43:09;43.45;;;17.75;;
71150;SDS011;59071;42.138;24.768;2024-01-15T02:45:34;43.15;;;18.25;;
71150;SDS011;59071;42.138;24.768;2024-01-15T02:48:00;43.55;;;18.60;;
71150;SDS011;59071;42.138;24.768;2024-01-15T02:50:25;49.22;;;19.80;;
71150;SDS011;59071;42.138;24.768;2024-01-15T02:52:51;62.63;;;22.20;;
71150;SDS011;59071;42.138;24.768;2024-01-15T02:55:16;46.85;;;19.83;;
71150;SDS011;59071;42.138;24.768;2024-01-15T02:57:42;48.70;;;20.23;;
71150;SDS011;59071;42.138;24.768;2024-01-15T03:00:07;47.80;;;19.83;;
71150;SDS011;59071;42.138;24.768;2024-01-15T03:02:36;43.58;;;20.35;;
71150;SDS011;59071;42.138;24.768;2024-01-15T03:05:04;47.00;;;19.00;;
71150;SDS011;59071;42.138;24.768;2024-01-15T03:07:29;49.42;;;18.40;;
71150;SDS011;59071;42.138;24.768;2024-01-15T03:09:55;43.72;;;18.25;;
71150;SDS011;59071;42.138;24.768;2024-01-15T03:12:20;45.55;;;18.63;;
71150;SDS011;59071;42.138;24.768;2024-01-15T03:14:45;53.65;;;19.98;;
71150;SDS011;59071;42.138;24.768;2024-01-15T03:17:11;48.95;;;19.77;;
71150;SDS011;59071;42.138;24.768;2024-01-15T03:19:37;49.25;;;19.65;;
71150;SDS011;59071;42.138;24.768;2024-01-15T03:22:02;42.95;;;19.52;;
71150;SDS011;59071;42.138;24.768;2024-01-15T03:24:28;53.08;;;20.98;;
71150;SDS011;59071;42.138;24.768;2024-01-15T03:26:54;48.45;;;20.52;;
71150;SDS011;59071;42.138;24.768;2024-01-15T03:29:19;52.58;;;21.63;;
71150;SDS011;59071;42.138;24.768;2024-01-15T03:31:45;55.78;;;21.88;;
71150;SDS011;59071;42.138;24.768;2024-01-15T03:34:11;51.58;;;20.17;;
71150;SDS011;59071;42.138;24.768;2024-01-15T03:36:36;55.10;;;20.90;;
71150;SDS011;59071;42.138;24.768;2024-01-15T03:39:02;54.95;;;21.75;;
71150;SDS011;59071;42.138;24.768;2024-01-15T03:41:27;55.17;;;21.80;;
71150;SDS011;59071;42.138;24.768;2024-01-15T03:43:53;50.72;;;21.80;;
71150;SDS011;59071;42.138;24.768;2024-01-15T03:46:18;48.33;;;20.83;;
71150;SDS011;59071;42.138;24.768;2024-01-15T03:48:43;48.80;;;19.75;;
71150;SDS011;59071;42.138;24.768;2024-01-15T03:51:09;48.60;;;19.95;;
71150;SDS011;59071;42.138;24.768;2024-01-15T03:53:34;51.35;;;20.80;;
71150;SDS011;59071;42.138;24.768;2024-01-15T03:55:59;48.47;;;20.65;;
71150;SDS011;59071;42.138;24.768;2024-01-15T03:58:25;47.65;;;19.52;;
71150;SDS011;59071;42.138;24.768;2024-01-15T04:00:50;53.22;;;21.27;;
71150;SDS011;59071;42.138;24.768;2024-01-15T04:03:15;51.70;;;20.33;;
71150;SDS011;59071;42.138;24.768;2024-01-15T04:05:41;50.25;;;20.42;;
71150;SDS011;59071;42.138;24.768;2024-01-15T04:08:06;50.08;;;19.73;;
71150;SDS011;59071;42.138;24.768;2024-01-15T04:10:31;52.50;;;20.10;;
71150;SDS011;59071;42.138;24.768;2024-01-15T04:12:57;42.38;;;19.58;;
71150;SDS011;59071;42.138;24.768;2024-01-15T04:15:24;49.03;;;20.30;;
71150;SDS011;59071;42.138;24.768;2024-01-15T04:17:50;52.33;;;20.42;;
71150;SDS011;59071;42.138;24.768;2024-01-15T04:20:15;52.30;;;19.50;;
71150;SDS011;59071;42.138;24.768;2024-01-15T04:22:40;47.08;;;19.90;;
71150;SDS011;59071;42.138;24.768;2024-01-15T04:25:06;56.00;;;22.17;;
71150;SDS011;59071;42.138;24.768;2024-01-15T04:27:32;47.42;;;19.67;;
71150;SDS011;59071;42.138;24.768;2024-01-15T04:29:57;51.50;;;20.77;;
71150;SDS011;59071;42.138;24.768;2024-01-15T04:32:22;63.33;;;21.27;;
71150;SDS011;59071;42.138;24.768;2024-01-15T04:34:48;50.75;;;20.88;;
71150;SDS011;59071;42.138;24.768;2024-01-15T04:37:13;49.65;;;19.98;;
71150;SDS011;59071;42.138;24.768;2024-01-15T04:39:39;46.35;;;18.95;;
71150;SDS011;59071;42.138;24.768;2024-01-15T04:42:04;46.05;;;19.15;;
71150;SDS011;59071;42.138;24.768;2024-01-15T04:44:30;40.75;;;17.30;;
71150;SDS011;59071;42.138;24.768;2024-01-15T04:46:55;44.25;;;16.83;;
71150;SDS011;59071;42.138;24.768;2024-01-15T04:49:21;39.30;;;17.40;;
71150;SDS011;59071;42.138;24.768;2024-01-15T04:51:46;40.22;;;17.35;;
71150;SDS011;59071;42.138;24.768;2024-01-15T04:54:11;38.70;;;16.25;;
71150;SDS011;59071;42.138;24.768;2024-01-15T04:56:37;52.75;;;19.30;;
71150;SDS011;59071;42.138;24.768;2024-01-15T04:59:02;48.17;;;19.10;;
71150;SDS011;59071;42.138;24.768;2024-01-15T05:01:31;49.83;;;20.92;;
71150;SDS011;59071;42.138;24.768;2024-01-15T05:03:57;49.22;;;20.50;;
71150;SDS011;59071;42.138;24.768;2024-01-15T05:06:23;47.33;;;19.50;;
71150;SDS011;59071;42.138;24.768;2024-01-15T05:08:48;42.33;;;18.30;;
71150;SDS011;59071;42.138;24.768;2024-01-15T05:11:13;47.65;;;18.42;;
71150;SDS011;59071;42.138;24.768;2024-01-15T05:13:39;46.70;;;18.45;;
71150;SDS011;59071;42.138;24.768;2024-01-15T05:16:05;44.00;;;18.48;;
71150;SDS011;59071;42.138;24.768;2024-01-15T05:18:31;44.05;;;18.23;;
71150;SDS011;59071;42.138;24.768;2024-01-15T05:20:56;44.65;;;18.67;;
71150;SDS011;59071;42.138;24.768;2024-01-15T05:23:21;53.72;;;19.13;;
71150;SDS011;59071;42.138;24.768;2024-01-15T05:25:47;50.88;;;20.75;;
71150;SDS011;59071;42.138;24.768;2024-01-15T05:28:13;56.40;;;20.10;;
71150;SDS011;59071;42.138;24.768;2024-01-15T05:30:39;53.88;;;21.10;;
71150;SDS011;59071;42.138;24.768;2024-01-15T05:33:04;50.83;;;20.40;;
71150;SDS011;59071;42.138;24.768;2024-01-15T05:35:29;55.75;;;20.58;;
71150;SDS011;59071;42.138;24.768;2024-01-15T05:37:55;44.75;;;19.63;;
71150;SDS011;59071;42.138;24.768;2024-01-15T05:40:20;47.38;;;21.52;;
71150;SDS011;59071;42.138;24.768;2024-01-15T05:42:45;51.47;;;18.83;;
71150;SDS011;59071;42.138;24.768;2024-01-15T05:45:11;46.65;;;21.05;;
71150;SDS011;59071;42.138;24.768;2024-01-15T05:47:36;56.72;;;22.42;;
71150;SDS011;59071;42.138;24.768;2024-01-15T05:50:02;61.17;;;23.38;;
71150;SDS011;59071;42.138;24.768;2024-01-15T05:52:27;56.70;;;22.77;;
71150;SDS011;59071;42.138;24.768;2024-01-15T05:54:53;66.53;;;27.08;;
71150;SDS011;59071;42.138;24.768;2024-01-15T05:57:18;68.18;;;29.92;;
71150;SDS011;59071;42.138;24.768;2024-01-15T05:59:44;66.32;;;27.50;;
71150;SDS011;59071;42.138;24.768;2024-01-15T06:02:10;68.45;;;28.40;;
71150;SDS011;59071;42.138;24.768;2024-01-15T06:04:35;60.63;;;24.20;;
71150;SDS011;59071;42.138;24.768;2024-01-15T06:07:01;60.83;;;28.50;;
71150;SDS011;59071;42.138;24.768;2024-01-15T06:09:26;64.95;;;29.02;;
71150;SDS011;59071;42.138;24.768;2024-01-15T06:11:53;61.88;;;24.77;;
71150;SDS011;59071;42.138;24.768;2024-01-15T06:14:18;62.85;;;26.30;;
71150;SDS011;59071;42.138;24.768;2024-01-15T06:16:43;66.05;;;26.27;;
71150;SDS011;59071;42.138;24.768;2024-01-15T06:19:09;73.70;;;27.90;;
71150;SDS011;59071;42.138;24.768;2024-01-15T06:21:34;61.88;;;26.73;;
71150;SDS011;59071;42.138;24.768;2024-01-15T06:23:59;61.15;;;25.77;;
71150;SDS011;59071;42.138;24.768;2024-01-15T06:26:25;59.55;;;24.98;;
71150;SDS011;59071;42.138;24.768;2024-01-15T06:28:50;61.53;;;25.48;;
71150;SDS011;59071;42.138;24.768;2024-01-15T06:31:15;54.58;;;24.85;;
71150;SDS011;59071;42.138;24.768;2024-01-15T06:33:41;63.05;;;24.17;;
71150;SDS011;59071;42.138;24.768;2024-01-15T06:36:07;56.17;;;24.90;;
71150;SDS011;59071;42.138;24.768;2024-01-15T06:38:33;55.95;;;25.45;;
71150;SDS011;59071;42.138;24.768;2024-01-15T06:40:59;61.50;;;23.48;;
71150;SDS011;59071;42.138;24.768;2024-01-15T06:43:24;51.80;;;22.65;;
71150;SDS011;59071;42.138;24.768;2024-01-15T06:45:50;61.28;;;23.67;;
71150;SDS011;59071;42.138;24.768;2024-01-15T06:48:15;67.32;;;27.20;;
71150;SDS011;59071;42.138;24.768;2024-01-15T06:50:44;60.17;;;24.75;;
71150;SDS011;59071;42.138;24.768;2024-01-15T06:53:10;60.35;;;22.80;;
71150;SDS011;59071;42.138;24.768;2024-01-15T06:55:35;65.53;;;25.95;;
71150;SDS011;59071;42.138;24.768;2024-01-15T06:58:01;68.75;;;26.75;;
71150;SDS011;59071;42.138;24.768;2024-01-15T07:00:26;61.60;;;25.17;;
71150;SDS011;59071;42.138;24.768;2024-01-15T07:02:52;63.47;;;26.67;;
71150;SDS011;59071;42.138;24.768;2024-01-15T07:05:18;59.63;;;25.55;;
71150;SDS011;59071;42.138;24.768;2024-01-15T07:07:43;58.80;;;22.73;;
71150;SDS011;59071;42.138;24.768;2024-01-15T07:10:09;68.25;;;24.63;;
71150;SDS011;59071;42.138;24.768;2024-01-15T07:12:35;51.35;;;22.60;;
71150;SDS011;59071;42.138;24.768;2024-01-15T07:15:00;59.55;;;24.75;;
71150;SDS011;59071;42.138;24.768;2024-01-15T07:17:27;61.25;;;25.30;;
71150;SDS011;59071;42.138;24.768;2024-01-15T07:19:52;66.32;;;25.73;;
71150;SDS011;59071;42.138;24.768;2024-01-15T07:22:17;56.20;;;21.48;;
71150;SDS011;59071;42.138;24.768;2024-01-15T07:24:43;64.65;;;24.83;;
71150;SDS011;59071;42.138;24.768;2024-01-15T07:27:09;59.70;;;25.20;;
71150;SDS011;59071;42.138;24.768;2024-01-15T07:29:34;60.03;;;26.80;;
71150;SDS011;59071;42.138;24.768;2024-01-15T07:32:02;70.65;;;29.40;;
71150;SDS011;59071;42.138;24.768;2024-01-15T07:34:28;72.28;;;30.25;;
71150;SDS011;59071;42.138;24.768;2024-01-15T07:36:54;79.32;;;31.77;;
71150;SDS011;59071;42.138;24.768;2024-01-15T07:39:19;66.00;;;27.58;;
71150;SDS011;59071;42.138;24.768;2024-01-15T07:41:44;58.13;;;24.75;;
71150;SDS011;59071;42.138;24.768;2024-01-15T07:44:10;59.42;;;25.15;;
71150;SDS011;59071;42.138;24.768;2024-01-15T07:46:35;55.42;;;23.80;;
71150;SDS011;59071;42.138;24.768;2024-01-15T07:49:00;53.40;;;22.70;;
71150;SDS011;59071;42.138;24.768;2024-01-15T07:51:26;44.63;;;20.92;;
71150;SDS011;59071;42.138;24.768;2024-01-15T07:53:54;54.90;;;24.33;;
71150;SDS011;59071;42.138;24.768;2024-01-15T07:56:22;45.70;;;23.40;;
71150;SDS011;59071;42.138;24.768;2024-01-15T07:58:48;56.15;;;22.45;;
71150;SDS011;59071;42.138;24.768;2024-01-15T08:01:13;57.15;;;23.42;;
71150;SDS011;59071;42.138;24.768;2024-01-15T08:03:38;52.35;;;22.75;;
71150;SDS011;59071;42.138;24.768;2024-01-15T08:06:05;59.85;;;23.38;;
71150;SDS011;59071;42.138;24.768;2024-01-15T08:08:30;54.88;;;24.85;;
71150;SDS011;59071;42.138;24.768;2024-01-15T08:10:56;54.22;;;24.02;;
71150;SDS011;59071;42.138;24.768;2024-01-15T08:13:21;53.20;;;22.92;;
71150;SDS011;59071;42.138;24.768;2024-01-15T08:15:46;58.05;;;23.83;;
71150;SDS011;59071;42.138;24.768;2024-01-15T08:18:12;52.97;;;22.58;;
71150;SDS011;59071;42.138;24.768;2024-01-15T08:20:37;53.60;;;23.02;;
71150;SDS011;59071;42.138;24.768;2024-01-15T08:23:03;52.17;;;22.30;;
71150;SDS011;59071;42.138;24.768;2024-01-15T08:25:29;52.65;;;23.88;;
71150;SDS011;59071;42.138;24.768;2024-01-15T08:27:55;48.70;;;23.08;;
71150;SDS011;59071;42.138;24.768;2024-01-15T08:30:21;51.60;;;22.75;;
71150;SDS011;59071;42.138;24.768;2024-01-15T08:32:49;51.78;;;24.77;;
71150;SDS011;59071;42.138;24.768;2024-01-15T08:35:15;56.58;;;25.33;;
71150;SDS011;59071;42.138;24.768;2024-01-15T08:37:40;52.40;;;24.23;;
71150;SDS011;59071;42.138;24.768;2024-01-15T08:40:06;51.33;;;23.25;;
71150;SDS011;59071;42.138;24.768;2024-01-15T08:42:31;48.10;;;22.98;;
71150;SDS011;59071;42.138;24.768;2024-01-15T08:44:57;46.75;;;23.40;;
71150;SDS011;59071;42.138;24.768;2024-01-15T08:47:22;51.63;;;23.08;;
71150;SDS011;59071;42.138;24.768;2024-01-15T08:49:47;50.55;;;22.02;;
71150;SDS011;59071;42.138;24.768;2024-01-15T08:52:13;48.72;;;23.08;;
71150;SDS011;59071;42.138;24.768;2024-01-15T08:54:39;54.42;;;24.40;;
71150;SDS011;59071;42.138;24.768;2024-01-15T08:57:04;49.80;;;23.58;;
71150;SDS011;59071;42.138;24.768;2024-01-15T08:59:29;47.72;;;22.15;;
71150;SDS011;59071;42.138;24.768;2024-01-15T09:01:55;46.88;;;23.10;;
71150;SDS011;59071;42.138;24.768;2024-01-15T09:04:22;49.25;;;23.10;;
71150;SDS011;59071;42.138;24.768;2024-01-15T09:06:48;50.78;;;23.33;;
71150;SDS011;59071;42.138;24.768;2024-01-15T09:09:13;53.60;;;23.42;;
71150;SDS011;59071;42.138;24.768;2024-01-15T09:11:42;51.38;;;23.95;;
71150;SDS011;59071;42.138;24.768;2024-01-15T09:14:07;46.22;;;22.75;;
71150;SDS011;59071;42.138;24.768;2024-01-15T09:16:33;48.90;;;23.73;;
71150;SDS011;59071;42.138;24.768;2024-01-15T09:18:58;49.05;;;23.63;;
71150;SDS011;59071;42.138;24.768;2024-01-15T09:21:24;46.88;;;23.65;;
71150;SDS011;59071;42.138;24.768;2024-01-15T09:23:50;46.83;;;23.48;;
71150;SDS011;59071;42.138;24.768;2024-01-15T09:26:16;50.33;;;24.05;;
71150;SDS011;59071;42.138;24.768;2024-01-15T09:28:41;48.58;;;22.52;;
71150;SDS011;59071;42.138;24.768;2024-01-15T09:31:07;53.53;;;22.10;;
71150;SDS011;59071;42.138;24.768;2024-01-15T09:33:32;49.67;;;23.75;;
71150;SDS011;59071;42.138;24.768;2024-01-15T09:36:01;48.08;;;23.00;;
71150;SDS011;59071;42.138;24.768;2024-01-15T09:38:28;58.78;;;25.40;;
71150;SDS011;59071;42.138;24.768;2024-01-15T09:40:54;50.88;;;24.40;;
71150;SDS011;59071;42.138;24.768;2024-01-15T09:43:20;54.55;;;23.83;;
71150;SDS011;59071;42.138;24.768;2024-01-15T09:45:46;58.63;;;25.40;;
71150;SDS011;59071;42.138;24.768;2024-01-15T09:48:12;51.50;;;24.75;;
71150;SDS011;59071;42.138;24.768;2024-01-15T09:50:37;50.60;;;24.23;;
71150;SDS011;59071;42.138;24.768;2024-01-15T09:53:03;50.15;;;24.17;;
71150;SDS011;59071;42.138;24.768;2024-01-15T09:55:30;45.40;;;22.77;;
71150;SDS011;59071;42.138;24.768;2024-01-15T09:57:57;45.30;;;22.17;;
71150;SDS011;59071;42.138;24.768;2024-01-15T10:00:25;46.92;;;22.02;;
71150;SDS011;59071;42.138;24.768;2024-01-15T10:02:52;46.28;;;21.02;;
71150;SDS011;59071;42.138;24.768;2024-01-15T10:05:17;44.70;;;21.13;;
71150;SDS011;59071;42.138;24.768;2024-01-15T10:07:43;47.53;;;21.00;;
71150;SDS011;59071;42.138;24.768;2024-01-15T10:10:11;48.67;;;20.63;;
71150;SDS011;59071;42.138;24.768;2024-01-15T10:12:36;41.90;;;20.38;;
71150;SDS011;59071;42.138;24.768;2024-01-15T10:15:03;42.28;;;20.20;;
71150;SDS011;59071;42.138;24.768;2024-01-15T10:17:29;43.17;;;20.05;;
71150;SDS011;59071;42.138;24.768;2024-01-15T10:19:56;44.42;;;20.10;;
71150;SDS011;59071;42.138;24.768;2024-01-15T10:22:22;44.80;;;19.38;;
71150;SDS011;59071;42.138;24.768;2024-01-15T10:24:48;40.85;;;19.65;;
71150;SDS011;59071;42.138;24.768;2024-01-15T10:27:14;42.17;;;20.27;;
71150;SDS011;59071;42.138;24.768;2024-01-15T10:29:40;47.90;;;21.25;;
71150;SDS011;59071;42.138;24.768;2024-01-15T10:32:07;43.47;;;20.65;;
71150;SDS011;59071;42.138;24.768;2024-01-15T10:34:38;42.35;;;19.58;;
71150;SDS011;59071;42.138;24.768;2024-01-15T10:37:07;37.17;;;18.60;;
71150;SDS011;59071;42.138;24.768;2024-01-15T10:39:33;41.20;;;19.17;;
71150;SDS011;59071;42.138;24.768;2024-01-15T10:41:59;49.05;;;21.42;;
71150;SDS011;59071;42.138;24.768;2024-01-15T10:44:25;41.55;;;20.55;;
71150;SDS011;59071;42.138;24.768;2024-01-15T10:46:50;43.95;;;20.60;;
71150;SDS011;59071;42.138;24.768;2024-01-15T10:49:16;43.58;;;20.27;;
71150;SDS011;59071;42.138;24.768;2024-01-15T10:51:44;46.63;;;20.75;;
71150;SDS011;59071;42.138;24.768;2024-01-15T10:54:09;43.08;;;20.75;;
71150;SDS011;59071;42.138;24.768;2024-01-15T10:56:37;50.80;;;21.70;;
71150;SDS011;59071;42.138;24.768;2024-01-15T10:59:03;40.95;;;19.67;;
71150;SDS011;59071;42.138;24.768;2024-01-15T11:01:30;49.55;;;22.38;;
71150;SDS011;59071;42.138;24.768;2024-01-15T11:03:56;48.15;;;21.90;;
71150;SDS011;59071;42.138;24.768;2024-01-15T11:06:23;50.50;;;22.88;;
71150;SDS011;59071;42.138;24.768;2024-01-15T11:08:49;48.58;;;22.77;;
71150;SDS011;59071;42.138;24.768;2024-01-15T11:11:21;45.10;;;21.88;;
71150;SDS011;59071;42.138;24.768;2024-01-15T11:13:47;47.08;;;21.73;;
71150;SDS011;59071;42.138;24.768;2024-01-15T11:16:15;46.67;;;23.05;;
71150;SDS011;59071;42.138;24.768;2024-01-15T11:18:41;45.40;;;21.83;;
71150;SDS011;59071;42.138;24.768;2024-01-15T11:21:22;44.45;;;21.33;;
71150;SDS011;59071;42.138;24.768;2024-01-15T11:23:57;42.42;;;20.17;;
71150;SDS011;59071;42.138;24.768;2024-01-15T11:26:27;40.33;;;20.40;;
71150;SDS011;59071;42.138;24.768;2024-01-15T11:28:53;41.72;;;20.08;;
71150;SDS011;59071;42.138;24.768;2024-01-15T11:31:19;44.83;;;20.45;;
71150;SDS011;59071;42.138;24.768;2024-01-15T11:33:48;39.95;;;20.23;;
71150;SDS011;59071;42.138;24.768;2024-01-15T11:36:14;46.92;;;20.23;;
71150;SDS011;59071;42.138;24.768;2024-01-15T11:38:40;43.38;;;18.35;;
71150;SDS011;59071;42.138;24.768;2024-01-15T11:41:14;40.22;;;19.08;;
71150;SDS011;59071;42.138;24.768;2024-01-15T11:43:42;35.58;;;17.88;;
71150;SDS011;59071;42.138;24.768;2024-01-15T11:46:10;37.70;;;17.92;;
71150;SDS011;59071;42.138;24.768;2024-01-15T11:48:43;42.08;;;19.40;;
71150;SDS011;59071;42.138;24.768;2024-01-15T11:51:12;36.78;;;18.50;;
71150;SDS011;59071;42.138;24.768;2024-01-15T11:53:45;30.42;;;16.52;;
71150;SDS011;59071;42.138;24.768;2024-01-15T11:56:16;33.97;;;16.98;;
71150;SDS011;59071;42.138;24.768;2024-01-15T11:58:43;27.27;;;14.48;;
71150;SDS011;59071;42.138;24.768;2024-01-15T12:01:10;28.88;;;14.05;;
71150;SDS011;59071;42.138;24.768;2024-01-15T12:03:36;35.33;;;17.75;;
71150;SDS011;59071;42.138;24.768;2024-01-15T12:06:01;33.10;;;16.42;;
71150;SDS011;59071;42.138;24.768;2024-01-15T12:08:27;35.15;;;16.30;;
71150;SDS011;59071;42.138;24.768;2024-01-15T12:10:52;39.28;;;18.90;;
71150;SDS011;59071;42.138;24.768;2024-01-15T12:13:18;36.35;;;17.33;;
71150;SDS011;59071;42.138;24.768;2024-01-15T12:15:45;33.15;;;17.63;;
71150;SDS011;59071;42.138;24.768;2024-01-15T12:18:20;35.95;;;19.40;;
71150;SDS011;59071;42.138;24.768;2024-01-15T12:20:46;42.72;;;20.60;;
71150;SDS011;59071;42.138;24.768;2024-01-15T12:23:12;44.22;;;20.15;;
71150;SDS011;59071;42.138;24.768;2024-01-15T12:25:38;42.88;;;21.75;;
71150;SDS011;59071;42.138;24.768;2024-01-15T12:28:04;54.17;;;25.25;;
71150;SDS011;59071;42.138;24.768;2024-01-15T12:30:30;58.28;;;26.70;;
71150;SDS011;59071;42.138;24.768;2024-01-15T12:33:02;54.40;;;27.67;;
71150;SDS011;59071;42.138;24.768;2024-01-15T12:35:31;59.17;;;28.45;;
71150;SDS011;59071;42.138;24.768;2024-01-15T12:37:59;59.95;;;27.90;;
71150;SDS011;59071;42.138;24.768;2024-01-15T12:40:29;57.47;;;28.00;;
71150;SDS011;59071;42.138;24.768;2024-01-15T12:42:55;51.65;;;27.08;;
71150;SDS011;59071;42.138;24.768;2024-01-15T12:45:21;58.47;;;27.35;;
71150;SDS011;59071;42.138;24.768;2024-01-15T12:47:46;58.85;;;28.27;;
71150;SDS011;59071;42.138;24.768;2024-01-15T12:50:12;54.38;;;26.58;;
71150;SDS011;59071;42.138;24.768;2024-01-15T12:52:41;58.92;;;27.23;;
71150;SDS011;59071;42.138;24.768;2024-01-15T12:55:07;49.75;;;25.38;;
71150;SDS011;59071;42.138;24.768;2024-01-15T12:57:36;55.33;;;27.25;;
71150;SDS011;59071;42.138;24.768;2024-01-15T13:00:03;56.10;;;26.83;;
71150;SDS011;59071;42.138;24.768;2024-01-15T13:02:41;54.78;;;26.85;;
71150;SDS011;59071;42.138;24.768;2024-01-15T13:05:08;61.40;;;27.13;;
71150;SDS011;59071;42.138;24.768;2024-01-15T13:07:36;55.75;;;27.88;;
71150;SDS011;59071;42.138;24.768;2024-01-15T13:10:01;54.00;;;26.70;;
71150;SDS011;59071;42.138;24.768;2024-01-15T13:12:27;54.35;;;27.42;;
71150;SDS011;59071;42.138;24.768;2024-01-15T13:14:52;51.20;;;26.63;;
71150;SDS011;59071;42.138;24.768;2024-01-15T13:17:17;50.90;;;25.55;;
71150;SDS011;59071;42.138;24.768;2024-01-15T13:19:43;50.15;;;25.38;;
71150;SDS011;59071;42.138;24.768;2024-01-15T13:22:08;60.40;;;27.15;;
71150;SDS011;59071;42.138;24.768;2024-01-15T13:24:34;54.92;;;27.35;;
71150;SDS011;59071;42.138;24.768;2024-01-15T13:27:01;48.85;;;25.88;;
71150;SDS011;59071;42.138;24.768;2024-01-15T13:29:27;51.22;;;25.30;;
71150;SDS011;59071;42.138;24.768;2024-01-15T13:31:53;53.33;;;26.52;;
71150;SDS011;59071;42.138;24.768;2024-01-15T13:34:18;52.42;;;25.77;;
71150;SDS011;59071;42.138;24.768;2024-01-15T13:36:44;54.45;;;27.23;;
71150;SDS011;59071;42.138;24.768;2024-01-15T13:39:09;53.78;;;26.25;;
71150;SDS011;59071;42.138;24.768;2024-01-15T13:41:35;48.22;;;24.40;;
71150;SDS011;59071;42.138;24.768;2024-01-15T13:44:01;51.90;;;25.15;;
71150;SDS011;59071;42.138;24.768;2024-01-15T13:46:26;52.88;;;25.80;;
71150;SDS011;59071;42.138;24.768;2024-01-15T13:48:52;52.17;;;25.35;;
71150;SDS011;59071;42.138;24.768;2024-01-15T13:51:18;48.30;;;24.75;;
71150;SDS011;59071;42.138;24.768;2024-01-15T13:53:43;52.80;;;24.33;;
71150;SDS011;59071;42.138;24.768;2024-01-15T13:56:08;56.30;;;26.20;;
71150;SDS011;59071;42.138;24.768;2024-01-15T13:58:37;62.10;;;25.95;;
71150;SDS011;59071;42.138;24.768;2024-01-15T14:01:03;53.05;;;25.45;;